createdAt,value
2019-05-20T00:00:00.132Z,9.37
2019-05-20T00:03:02.375Z,10.63
2019-05-20T00:06:04.757Z,13.37
2019-05-20T00:09:07.014Z,10.53
2019-05-20T00:12:09.353Z,8.50
2019-05-20T00:15:11.615Z,9.67
2019-05-20T00:18:13.893Z,7.40
2019-05-20T00:21:16.154Z,11.00
2019-05-20T00:24:18.497Z,11.17
2019-05-20T00:27:20.762Z,8.60
2019-05-20T00:30:23.003Z,8.80
2019-05-20T00:33:25.220Z,9.83
2019-05-20T00:36:27.552Z,10.53
2019-05-20T00:39:29.840Z,11.27
2019-05-20T00:42:32.103Z,10.30
2019-05-20T00:45:34.428Z,8.80
2019-05-20T00:48:36.727Z,8.03
2019-05-20T00:51:39.047Z,8.43
2019-05-20T00:54:41.507Z,9.80
2019-05-20T00:57:43.770Z,13.30
2019-05-20T01:00:46.083Z,7.93
2019-05-20T01:03:48.299Z,8.73
2019-05-20T01:06:50.607Z,8.60
2019-05-20T01:09:52.882Z,10.60
2019-05-20T01:12:55.191Z,8.53
2019-05-20T01:15:57.504Z,9.87
2019-05-20T01:18:59.699Z,9.10
2019-05-20T01:22:01.991Z,9.43
2019-05-20T01:25:04.413Z,8.10
2019-05-20T01:28:06.726Z,9.23
2019-05-20T01:31:09.056Z,10.63
2019-05-20T01:34:11.377Z,8.17
2019-05-20T01:37:13.636Z,7.40
2019-05-20T01:40:15.927Z,13.07
2019-05-20T01:43:18.224Z,10.07
2019-05-20T01:46:20.448Z,11.10
2019-05-20T01:49:22.727Z,8.93
2019-05-20T01:52:25.020Z,11.03
2019-05-20T01:55:27.266Z,9.43
2019-05-20T01:58:29.511Z,9.67
2019-05-20T02:01:31.780Z,7.37
2019-05-20T02:04:33.997Z,11.67
2019-05-20T02:07:36.275Z,11.50
2019-05-20T02:10:38.523Z,11.20
2019-05-20T02:13:46.407Z,11.93
2019-05-20T02:16:48.623Z,9.80
2019-05-20T02:19:50.863Z,9.53
2019-05-20T02:22:54.357Z,10.13
2019-05-20T02:25:56.597Z,11.00
2019-05-20T02:28:58.804Z,10.63
2019-05-20T02:32:01.076Z,10.80
2019-05-20T02:35:03.500Z,11.90
2019-05-20T02:38:05.738Z,15.40
2019-05-20T02:41:08.018Z,11.63
2019-05-20T02:44:10.292Z,13.23
2019-05-20T02:47:12.593Z,12.57
2019-05-20T02:50:14.854Z,13.20
2019-05-20T02:53:17.080Z,13.60
2019-05-20T02:56:19.328Z,15.20
2019-05-20T02:59:21.574Z,15.87
2019-05-20T03:02:23.837Z,16.73
2019-05-20T03:05:26.083Z,16.13
2019-05-20T03:08:28.416Z,16.67
2019-05-20T03:11:30.762Z,17.23
2019-05-20T03:14:32.955Z,19.07
2019-05-20T03:17:35.209Z,16.67
2019-05-20T03:20:37.449Z,20.73
2019-05-20T03:23:39.659Z,20.23
2019-05-20T03:26:41.895Z,18.00
2019-05-20T03:29:44.132Z,20.47
2019-05-20T03:32:46.382Z,21.10
2019-05-20T03:35:48.677Z,21.97
2019-05-20T03:38:50.913Z,22.33
2019-05-20T03:41:53.136Z,22.73
2019-05-20T03:44:55.363Z,21.97
2019-05-20T03:47:57.594Z,23.73
2019-05-20T03:50:59.831Z,25.47
2019-05-20T03:54:02.065Z,22.60
2019-05-20T03:57:04.343Z,30.67
2019-05-20T04:00:06.616Z,27.23
2019-05-20T04:03:08.877Z,29.50
2019-05-20T04:06:11.140Z,32.77
2019-05-20T04:09:13.391Z,31.27
2019-05-20T04:12:15.693Z,31.30
2019-05-20T04:15:17.949Z,30.47
2019-05-20T04:18:20.233Z,31.53
2019-05-20T04:21:22.486Z,33.80
2019-05-20T04:24:24.736Z,29.83
2019-05-20T04:27:27.029Z,34.30
2019-05-20T04:30:29.291Z,31.50
2019-05-20T04:33:31.572Z,30.37
2019-05-20T04:36:33.916Z,27.23
2019-05-20T04:39:36.199Z,28.27
2019-05-20T04:42:38.440Z,29.63
2019-05-20T04:45:40.697Z,28.33
2019-05-20T04:48:42.916Z,30.57
2019-05-20T04:51:45.226Z,37.03
2019-05-20T04:54:47.461Z,43.07
2019-05-20T04:57:49.691Z,37.50
2019-05-20T05:00:54.084Z,37.30
2019-05-20T05:03:56.321Z,33.13
2019-05-20T05:06:58.536Z,31.83
2019-05-20T05:10:00.848Z,31.83
2019-05-20T05:13:03.129Z,33.73
2019-05-20T05:16:05.413Z,32.03
2019-05-20T05:19:07.656Z,31.83
2019-05-20T05:22:09.905Z,39.53
2019-05-20T05:25:12.154Z,37.67
2019-05-20T05:28:14.443Z,32.30
2019-05-20T05:31:16.656Z,32.37
2019-05-20T05:34:18.945Z,34.60
2019-05-20T05:37:21.913Z,37.80
2019-05-20T05:40:27.755Z,40.93
2019-05-20T05:43:30.020Z,45.10
2019-05-20T05:46:32.255Z,47.50
2019-05-20T05:49:34.603Z,40.93
2019-05-20T05:52:36.875Z,44.27
2019-05-20T05:55:39.135Z,42.53
2019-05-20T05:58:41.417Z,47.37
2019-05-20T06:01:43.731Z,53.30
2019-05-20T06:04:46.042Z,41.10
2019-05-20T06:07:48.337Z,44.00
2019-05-20T06:10:50.597Z,48.07
2019-05-20T06:13:52.880Z,48.70
2019-05-20T06:16:55.166Z,56.03
2019-05-20T06:19:57.438Z,47.90
2019-05-20T06:22:59.699Z,58.43
2019-05-20T06:26:01.988Z,60.23
2019-05-20T06:29:04.229Z,53.43
2019-05-20T06:32:06.494Z,52.33
2019-05-20T06:35:08.806Z,64.80
2019-05-20T06:38:14.521Z,56.50
2019-05-20T06:41:16.777Z,51.43
2019-05-20T06:44:19.069Z,63.80
2019-05-20T06:47:21.355Z,68.03
2019-05-20T06:50:23.639Z,67.27
2019-05-20T06:53:25.957Z,56.87
2019-05-20T06:56:28.231Z,68.47
2019-05-20T06:59:30.523Z,76.47
2019-05-20T07:02:32.846Z,75.00
2019-05-20T07:05:35.180Z,72.73
2019-05-20T07:08:37.404Z,68.23
2019-05-20T07:11:39.683Z,58.47
2019-05-20T07:14:41.904Z,66.37
2019-05-20T07:17:44.143Z,74.60
2019-05-20T07:20:46.423Z,67.27
2019-05-20T07:23:52.163Z,67.63
2019-05-20T07:26:50.996Z,88.00
2019-05-20T07:29:53.209Z,77.67
2019-05-20T07:32:55.685Z,73.90
2019-05-20T07:35:57.972Z,88.57
2019-05-20T07:39:00.200Z,85.07
2019-05-20T07:42:02.473Z,90.10
2019-05-20T07:45:04.965Z,86.43
2019-05-20T07:48:07.535Z,85.07
2019-05-20T07:51:10.126Z,77.17
2019-05-20T07:54:12.518Z,103.23
2019-05-20T07:57:14.880Z,100.37
2019-05-20T08:00:17.253Z,82.57
2019-05-20T08:03:19.543Z,103.20
2019-05-20T08:06:21.867Z,83.57
2019-05-20T08:09:24.248Z,75.50
2019-05-20T08:12:26.543Z,101.27
2019-05-20T08:15:28.863Z,87.37
2019-05-20T08:18:31.119Z,77.63
2019-05-20T08:21:33.425Z,68.77
2019-05-20T08:24:35.697Z,108.97
2019-05-20T08:27:37.943Z,72.53
2019-05-20T08:30:40.227Z,83.57
2019-05-20T08:33:42.492Z,78.87
2019-05-20T08:36:44.797Z,66.07
2019-05-20T08:39:47.264Z,65.90
2019-05-20T08:42:49.480Z,76.23
2019-05-20T08:45:51.712Z,62.20
2019-05-20T08:48:53.957Z,47.90
2019-05-20T08:51:56.236Z,61.40
2019-05-20T08:54:59.894Z,60.27
2019-05-20T08:58:02.213Z,60.93
2019-05-20T09:01:04.657Z,64.43
2019-05-20T09:04:06.876Z,59.03
2019-05-20T09:07:09.415Z,58.93
2019-05-20T09:10:11.774Z,63.53
2019-05-20T09:13:14.117Z,67.77
2019-05-20T09:16:16.431Z,61.97
2019-05-20T09:19:18.716Z,62.13
2019-05-20T09:22:20.991Z,63.13
2019-05-20T09:25:29.479Z,62.80
2019-05-20T09:28:31.724Z,49.27
2019-05-20T09:31:34.069Z,55.50
2019-05-20T09:34:36.383Z,61.57
2019-05-20T09:37:38.634Z,59.53
2019-05-20T09:40:42.495Z,75.07
2019-05-20T09:43:44.773Z,61.60
2019-05-20T09:46:47.089Z,52.43
2019-05-20T09:49:49.352Z,54.90
2019-05-20T09:52:51.631Z,57.43
2019-05-20T09:55:53.945Z,57.27
2019-05-20T09:58:56.171Z,59.13
2019-05-20T10:01:58.390Z,56.30
2019-05-20T10:05:00.671Z,54.53
2019-05-20T10:08:02.916Z,65.50
2019-05-20T10:11:05.170Z,54.33
2019-05-20T10:14:07.547Z,63.47
2019-05-20T10:17:09.912Z,57.30
2019-05-20T10:20:12.203Z,59.10
2019-05-20T10:23:15.872Z,55.27
2019-05-20T10:26:16.804Z,53.30
2019-05-20T10:29:19.073Z,61.10
2019-05-20T10:32:21.344Z,59.13
2019-05-20T10:35:23.639Z,54.27
2019-05-20T10:38:25.899Z,48.80
2019-05-20T10:41:29.639Z,47.23
2019-05-20T10:44:30.481Z,45.67
2019-05-20T10:47:32.762Z,43.37
2019-05-20T10:50:35.028Z,48.07
2019-05-20T10:53:37.393Z,41.43
2019-05-20T10:56:39.691Z,50.67
2019-05-20T10:59:41.949Z,47.33
2019-05-20T11:02:44.248Z,50.60
2019-05-20T11:05:46.456Z,48.60
2019-05-20T11:08:48.691Z,56.47
2019-05-20T11:11:50.977Z,54.97
2019-05-20T11:14:53.239Z,56.80
2019-05-20T11:17:55.478Z,61.13
2019-05-20T11:20:57.765Z,51.40
2019-05-20T11:23:59.983Z,44.57
2019-05-20T11:27:02.261Z,44.97
2019-05-20T11:30:05.011Z,45.17
2019-05-20T11:33:07.219Z,45.50
2019-05-20T11:36:09.471Z,48.73
2019-05-20T11:39:11.736Z,52.03
2019-05-20T11:42:14.015Z,48.17
2019-05-20T11:45:16.320Z,45.17
2019-05-20T11:48:18.586Z,50.90
2019-05-20T11:51:20.876Z,49.60
2019-05-20T11:54:23.199Z,50.47
2019-05-20T11:57:25.517Z,49.33
2019-05-20T12:00:27.862Z,45.47
2019-05-20T12:03:30.135Z,49.03
2019-05-20T12:06:32.475Z,51.23
2019-05-20T12:09:48.212Z,48.23
2019-05-20T12:12:37.005Z,48.97
2019-05-20T12:15:39.299Z,46.03
2019-05-20T12:18:44.983Z,51.67
2019-05-20T12:21:43.991Z,50.37
2019-05-20T12:24:46.358Z,49.50
2019-05-20T12:27:48.639Z,51.97
2019-05-20T12:30:50.915Z,47.83
2019-05-20T12:33:53.227Z,48.50
2019-05-20T12:36:55.554Z,48.03
2019-05-20T12:40:06.910Z,45.23
2019-05-20T12:43:00.035Z,45.17
2019-05-20T12:46:02.323Z,35.10
2019-05-20T12:49:04.763Z,31.07
2019-05-20T12:52:06.924Z,32.10
2019-05-20T12:55:10.202Z,24.20
2019-05-20T12:58:11.528Z,23.27
2019-05-20T13:01:13.768Z,24.93
2019-05-20T13:04:16.050Z,19.20
2019-05-20T13:07:18.334Z,24.10
2019-05-20T13:10:31.694Z,23.57
2019-05-20T13:13:22.949Z,22.17
2019-05-20T13:16:25.293Z,19.43
2019-05-20T13:19:27.556Z,20.53
2019-05-20T13:22:29.842Z,17.83
2019-05-20T13:25:32.095Z,18.37
2019-05-20T13:28:34.412Z,13.77
2019-05-20T13:31:36.703Z,11.47
2019-05-20T13:34:38.984Z,11.63
2019-05-20T13:37:41.275Z,11.73
2019-05-20T13:40:46.834Z,16.03
2019-05-20T13:43:46.089Z,14.57
2019-05-20T13:46:48.420Z,23.40
2019-05-20T13:49:50.765Z,18.93
2019-05-20T13:52:53.041Z,20.70
2019-05-20T13:55:55.293Z,26.63
2019-05-20T13:58:57.561Z,25.93
2019-05-20T14:01:59.816Z,27.27
2019-05-20T14:05:02.190Z,22.57
2019-05-20T14:08:04.480Z,20.73
2019-05-20T14:11:06.726Z,25.90
2019-05-20T14:14:09.034Z,26.60
2019-05-20T14:17:11.270Z,32.50
2019-05-20T14:20:13.617Z,23.87
2019-05-20T14:23:15.899Z,29.43
2019-05-20T14:26:18.139Z,30.57
2019-05-20T14:29:20.403Z,30.97
2019-05-20T14:32:22.649Z,28.17
2019-05-20T14:35:24.964Z,30.00
2019-05-20T14:38:27.197Z,28.17
2019-05-20T14:41:29.538Z,31.97
2019-05-20T14:44:31.810Z,36.63
2019-05-20T14:47:34.094Z,32.40
2019-05-20T14:50:36.365Z,39.60
2019-05-20T14:53:38.593Z,31.83
2019-05-20T14:56:40.859Z,31.57
2019-05-20T14:59:43.090Z,32.87
2019-05-20T15:02:45.453Z,29.10
2019-05-20T15:05:47.729Z,39.20
2019-05-20T15:08:49.973Z,30.10
2019-05-20T15:11:52.247Z,31.17
2019-05-20T15:14:54.589Z,37.70
2019-05-20T15:17:56.876Z,28.67
2019-05-20T15:20:59.141Z,26.83
2019-05-20T15:24:01.616Z,28.60
2019-05-20T15:27:03.843Z,33.47
2019-05-20T15:30:06.168Z,29.97
2019-05-20T15:33:08.474Z,38.13
2019-05-20T15:36:10.718Z,28.50
2019-05-20T15:39:13.041Z,24.93
2019-05-20T15:42:15.299Z,33.40
2019-05-20T15:45:17.564Z,35.87
2019-05-20T15:48:19.851Z,30.70
2019-05-20T15:51:22.089Z,33.50
2019-05-20T15:54:24.413Z,34.73
2019-05-20T15:57:26.700Z,32.40
2019-05-20T16:00:29.021Z,33.27
2019-05-20T16:03:38.877Z,41.93
2019-05-20T16:06:41.222Z,34.50
2019-05-20T16:09:43.500Z,37.93
2019-05-20T16:12:45.747Z,26.83
2019-05-20T16:15:48.036Z,26.17
2019-05-20T16:18:50.657Z,34.27
2019-05-20T16:21:53.162Z,27.53
2019-05-20T16:24:55.388Z,23.33
2019-05-20T16:27:57.707Z,23.50
2019-05-20T16:31:00.055Z,18.57
2019-05-20T16:34:02.369Z,26.53
2019-05-20T16:37:04.699Z,24.00
2019-05-20T16:40:07.185Z,24.03
2019-05-20T16:43:09.618Z,26.17
2019-05-20T16:46:12.021Z,29.27
2019-05-20T16:49:14.284Z,24.00
2019-05-20T16:52:16.718Z,34.47
2019-05-20T16:55:19.703Z,32.70
2019-05-20T16:58:22.153Z,45.17
2019-05-20T17:01:24.397Z,26.50
2019-05-20T17:04:26.788Z,30.07
2019-05-20T17:07:29.115Z,25.80
2019-05-20T17:10:31.395Z,31.53
2019-05-20T17:13:33.641Z,33.90
2019-05-20T17:16:35.843Z,30.83
2019-05-20T17:19:38.134Z,30.13
2019-05-20T17:22:40.370Z,30.10
2019-05-20T17:25:42.704Z,32.30
2019-05-20T17:28:45.025Z,34.17
2019-05-20T17:31:53.249Z,30.40
2019-05-20T17:34:55.534Z,36.60
2019-05-20T17:37:57.789Z,37.80
2019-05-20T17:41:00.055Z,40.90
2019-05-20T17:44:02.421Z,43.20
2019-05-20T17:47:04.833Z,39.30
2019-05-20T17:50:07.154Z,43.97
2019-05-20T17:53:09.412Z,47.70
2019-05-20T17:56:11.736Z,53.97
2019-05-20T17:59:14.023Z,53.57
2019-05-20T18:02:16.300Z,65.37
2019-05-20T18:05:24.792Z,63.87
2019-05-20T18:08:30.355Z,63.83
2019-05-20T18:11:32.745Z,62.53
2019-05-20T18:14:35.010Z,64.70
2019-05-20T18:17:37.267Z,63.57
2019-05-20T18:20:39.586Z,69.57
2019-05-20T18:23:41.880Z,71.80
2019-05-20T18:26:44.302Z,64.87
2019-05-20T18:29:46.596Z,66.77
2019-05-20T18:32:48.921Z,71.33
2019-05-20T18:35:51.248Z,78.50
2019-05-20T18:38:53.449Z,84.20
2019-05-20T18:41:55.695Z,71.17
2019-05-20T18:44:58.004Z,108.80
2019-05-20T18:48:00.276Z,67.87
2019-05-20T18:51:02.583Z,82.00
2019-05-20T18:54:04.952Z,76.20
2019-05-20T18:57:07.431Z,59.60
2019-05-20T19:00:09.893Z,74.40
2019-05-20T19:03:12.191Z,57.07
2019-05-20T19:06:14.486Z,68.03
2019-05-20T19:09:16.881Z,61.13
2019-05-20T19:12:19.306Z,62.33
2019-05-20T19:15:21.676Z,59.43
2019-05-20T19:18:24.005Z,65.03
2019-05-20T19:21:26.232Z,59.90
2019-05-20T19:24:28.527Z,71.47
2019-05-20T19:27:30.759Z,63.50
2019-05-20T19:30:33.045Z,69.37
2019-05-20T19:33:35.317Z,86.77
2019-05-20T19:36:37.615Z,63.40
2019-05-20T19:39:39.819Z,66.50
2019-05-20T19:42:42.069Z,59.83
2019-05-20T19:45:44.299Z,46.67
2019-05-20T19:48:46.585Z,49.23
2019-05-20T19:51:48.899Z,44.03
2019-05-20T19:54:51.231Z,48.63
2019-05-20T19:57:54.139Z,40.37
2019-05-20T20:00:56.876Z,41.37
2019-05-20T20:03:58.776Z,38.17
2019-05-20T20:07:01.050Z,40.23
2019-05-20T20:10:03.623Z,29.37
2019-05-20T20:13:05.946Z,29.03
2019-05-20T20:16:08.340Z,40.00
2019-05-20T20:19:10.620Z,40.70
2019-05-20T20:22:12.910Z,40.17
2019-05-20T20:25:15.198Z,33.83
2019-05-20T20:28:17.408Z,37.23
2019-05-20T20:31:19.920Z,39.83
2019-05-20T20:34:22.266Z,34.73
2019-05-20T20:37:24.690Z,32.03
2019-05-20T20:40:26.927Z,30.13
2019-05-20T20:43:32.092Z,34.70
2019-05-20T20:46:31.426Z,31.40
2019-05-20T20:49:33.655Z,35.03
2019-05-20T20:52:43.531Z,44.30
2019-05-20T20:55:45.820Z,45.57
2019-05-20T20:58:48.174Z,34.13
2019-05-20T21:01:54.099Z,25.27
2019-05-20T21:04:52.781Z,15.57
2019-05-20T21:07:55.017Z,18.63
2019-05-20T21:10:57.266Z,14.03
2019-05-20T21:13:59.513Z,18.57
2019-05-20T21:17:01.789Z,27.30
2019-05-20T21:20:04.145Z,26.43
2019-05-20T21:23:06.383Z,26.87
2019-05-20T21:26:08.642Z,36.60
2019-05-20T21:29:11.859Z,54.20
2019-05-20T21:32:14.108Z,48.90
2019-05-20T21:35:16.351Z,67.13
2019-05-20T21:38:18.578Z,58.63
2019-05-20T21:41:20.861Z,45.97
2019-05-20T21:44:23.081Z,40.80
2019-05-20T21:47:26.186Z,41.23
2019-05-20T21:50:28.632Z,37.47
2019-05-20T21:53:30.879Z,40.03
2019-05-20T21:56:33.115Z,35.77
2019-05-20T21:59:35.415Z,29.00
2019-05-20T22:02:39.404Z,34.30
2019-05-20T22:05:41.860Z,31.37
2019-05-20T22:08:47.426Z,25.80
2019-05-20T22:11:49.862Z,31.37
2019-05-20T22:14:55.181Z,26.73
2019-05-20T22:18:00.944Z,28.63
2019-05-20T22:21:05.543Z,23.73
2019-05-20T22:24:09.667Z,19.40
2019-05-20T22:27:12.299Z,22.00
2019-05-20T22:30:14.619Z,25.50
2019-05-20T22:33:16.957Z,17.47
2019-05-20T22:36:19.350Z,30.33
2019-05-20T22:39:21.559Z,37.93
2019-05-20T22:42:23.788Z,39.40
2019-05-20T22:45:26.079Z,31.37
2019-05-20T22:48:28.405Z,42.87
2019-05-20T22:51:30.687Z,54.13
2019-05-20T22:54:32.945Z,48.67
2019-05-20T22:57:35.203Z,52.77
2019-05-20T23:00:37.692Z,54.17
2019-05-20T23:03:40.028Z,60.40
2019-05-20T23:06:42.315Z,58.23
2019-05-20T23:09:44.549Z,63.53
2019-05-20T23:12:46.840Z,62.67
2019-05-20T23:15:49.075Z,73.43
2019-05-20T23:18:51.329Z,89.97
2019-05-20T23:21:53.747Z,61.93
2019-05-20T23:24:56.016Z,57.73
2019-05-20T23:27:58.340Z,63.70
2019-05-20T23:31:00.602Z,51.43
2019-05-20T23:34:12.190Z,47.53
2019-05-20T23:37:05.101Z,45.57
2019-05-20T23:40:07.496Z,64.70
2019-05-20T23:43:09.759Z,50.47
2019-05-20T23:46:11.995Z,46.30
2019-05-20T23:49:14.282Z,43.50
2019-05-20T23:52:16.511Z,37.97
2019-05-20T23:55:18.771Z,27.60
2019-05-20T23:58:20.983Z,25.70
